createdAt,value
2018-01-13T00:02:17.564Z,2.70
2018-01-13T00:04:46.580Z,2.60
2018-01-13T00:07:14.830Z,2.60
2018-01-13T00:09:43.131Z,2.60
2018-01-13T00:12:12.164Z,2.50
2018-01-13T00:14:40.401Z,2.50
2018-01-13T00:17:08.686Z,2.50
2018-01-13T00:19:37.744Z,2.40
2018-01-13T00:22:06.025Z,2.40
2018-01-13T00:24:34.296Z,2.40
2018-01-13T00:27:02.579Z,2.30
2018-01-13T00:29:30.812Z,2.30
2018-01-13T00:31:59.124Z,2.30
2018-01-13T00:34:27.360Z,2.30
2018-01-13T00:36:55.632Z,2.20
2018-01-13T00:39:23.884Z,2.20
2018-01-13T00:41:52.898Z,2.10
2018-01-13T00:44:21.215Z,2.10
2018-01-13T00:46:49.483Z,2.10
2018-01-13T00:49:17.793Z,2.10
2018-01-13T00:51:46.080Z,2.10
2018-01-13T00:54:14.384Z,2.10
2018-01-13T00:56:42.694Z,2.00
2018-01-13T00:59:10.975Z,2.00
2018-01-13T01:01:39.235Z,2.00
2018-01-13T01:04:07.516Z,1.90
2018-01-13T01:06:35.760Z,1.90
2018-01-13T01:09:04.064Z,1.90
2018-01-13T01:11:32.362Z,2.00
2018-01-13T01:14:00.725Z,2.00
2018-01-13T01:16:28.996Z,2.00
2018-01-13T01:18:57.232Z,2.00
2018-01-13T01:21:26.261Z,2.00
2018-01-13T01:23:54.504Z,2.00
2018-01-13T01:26:23.576Z,2.10
2018-01-13T01:28:51.863Z,2.00
2018-01-13T01:31:20.142Z,2.10
2018-01-13T01:33:48.438Z,2.10
2018-01-13T01:36:17.433Z,2.30
2018-01-13T01:38:46.463Z,2.30
2018-01-13T01:41:14.742Z,2.30
2018-01-13T01:43:42.976Z,2.40
2018-01-13T01:46:11.995Z,2.40
2018-01-13T01:48:40.244Z,2.40
2018-01-13T01:51:09.276Z,2.40
2018-01-13T01:53:37.568Z,2.40
2018-01-13T01:56:05.809Z,2.40
2018-01-13T01:58:34.065Z,2.50
2018-01-13T02:01:03.085Z,2.60
2018-01-13T02:03:31.339Z,2.60
2018-01-13T02:06:00.373Z,2.60
2018-01-13T02:08:28.613Z,2.60
2018-01-13T02:10:57.676Z,2.70
2018-01-13T02:13:25.960Z,2.70
2018-01-13T02:15:54.271Z,2.80
2018-01-13T02:18:23.280Z,2.90
2018-01-13T02:20:51.528Z,2.90
2018-01-13T02:23:20.585Z,3.00
2018-01-13T02:25:48.847Z,3.00
2018-01-13T02:28:17.126Z,3.00
2018-01-13T02:30:45.400Z,3.00
2018-01-13T02:33:13.633Z,3.10
2018-01-13T02:35:42.656Z,3.10
2018-01-13T02:38:10.901Z,3.10
2018-01-13T02:40:39.149Z,3.10
2018-01-13T02:43:07.418Z,3.10
2018-01-13T02:45:35.690Z,3.20
2018-01-13T02:48:03.990Z,3.20
2018-01-13T02:50:32.274Z,3.20
2018-01-13T02:53:00.535Z,3.20
2018-01-13T02:55:29.606Z,3.20
2018-01-13T02:57:57.844Z,3.20
2018-01-13T03:00:26.907Z,3.30
2018-01-13T03:02:55.145Z,3.30
2018-01-13T03:05:23.432Z,3.30
2018-01-13T03:07:51.691Z,3.30
2018-01-13T03:10:19.932Z,3.30
2018-01-13T03:12:48.208Z,3.30
2018-01-13T03:15:16.498Z,3.40
2018-01-13T03:17:45.511Z,3.40
2018-01-13T03:20:14.569Z,3.40
2018-01-13T03:22:42.806Z,3.40
2018-01-13T03:25:11.080Z,3.40
2018-01-13T03:27:39.311Z,3.50
2018-01-13T03:30:08.325Z,3.50
2018-01-13T03:32:37.381Z,3.50
2018-01-13T03:35:05.605Z,3.50
2018-01-13T03:37:33.880Z,3.50
2018-01-13T03:40:02.119Z,3.50
2018-01-13T03:42:30.408Z,3.50
2018-01-13T03:44:58.722Z,3.50
2018-01-13T03:47:27.004Z,3.60
2018-01-13T03:49:55.268Z,3.60
2018-01-13T03:52:23.497Z,3.60
2018-01-13T03:54:51.741Z,3.60
2018-01-13T03:57:20.049Z,3.60
2018-01-13T03:59:48.333Z,3.60
2018-01-13T04:02:16.591Z,3.60
2018-01-13T04:04:44.845Z,3.60
2018-01-13T04:07:13.146Z,3.70
2018-01-13T04:09:41.440Z,3.70
2018-01-13T04:12:09.667Z,3.70
2018-01-13T04:14:38.401Z,3.70
2018-01-13T04:17:06.678Z,3.70
2018-01-13T04:19:34.910Z,3.70
2018-01-13T04:22:03.209Z,3.80
2018-01-13T04:24:31.447Z,3.70
2018-01-13T04:26:59.733Z,3.70
2018-01-13T04:29:27.985Z,3.80
2018-01-13T04:31:56.985Z,3.80
2018-01-13T04:34:26.003Z,3.80
2018-01-13T04:36:54.304Z,3.80
2018-01-13T04:39:22.611Z,3.80
2018-01-13T04:41:50.833Z,3.80
2018-01-13T04:44:19.081Z,3.80
2018-01-13T04:46:48.118Z,3.80
2018-01-13T04:49:16.361Z,3.80
2018-01-13T04:51:45.395Z,3.80
2018-01-13T04:54:13.623Z,3.80
2018-01-13T04:56:42.638Z,3.80
2018-01-13T04:59:10.934Z,3.80
2018-01-13T05:01:39.215Z,3.80
2018-01-13T05:04:07.476Z,3.90
2018-01-13T05:06:35.730Z,3.90
2018-01-13T05:09:04.799Z,4.00
2018-01-13T05:11:33.040Z,4.00
2018-01-13T05:14:01.327Z,4.00
2018-01-13T05:16:29.583Z,4.10
2018-01-13T05:18:57.862Z,4.00
2018-01-13T05:21:26.106Z,4.00
2018-01-13T05:23:55.176Z,4.10
2018-01-13T05:26:23.419Z,4.10
2018-01-13T05:28:51.728Z,4.10
2018-01-13T05:31:19.966Z,4.10
2018-01-13T05:33:48.246Z,4.10
2018-01-13T05:36:16.492Z,4.10
2018-01-13T05:38:45.505Z,4.10
2018-01-13T05:41:13.794Z,4.10
2018-01-13T05:43:42.071Z,4.10
2018-01-13T05:46:10.306Z,4.10
2018-01-13T05:48:39.375Z,4.10
2018-01-13T05:51:07.662Z,4.10
2018-01-13T05:53:35.983Z,4.10
2018-01-13T05:56:04.256Z,4.10
2018-01-13T05:58:32.501Z,4.10
2018-01-13T06:01:00.764Z,4.10
2018-01-13T06:03:29.077Z,4.10
2018-01-13T06:05:57.315Z,4.20
2018-01-13T06:08:25.606Z,4.10
2018-01-13T06:10:53.891Z,4.20
2018-01-13T06:13:22.203Z,4.20
2018-01-13T06:15:50.472Z,4.20
2018-01-13T06:18:18.791Z,4.20
2018-01-13T06:20:47.025Z,4.20
2018-01-13T06:23:16.079Z,4.20
2018-01-13T06:25:44.380Z,4.20
2018-01-13T06:28:13.067Z,4.20
2018-01-13T06:30:41.345Z,4.30
2018-01-13T06:33:09.591Z,4.30
2018-01-13T06:35:38.618Z,4.40
2018-01-13T06:38:06.893Z,4.40
2018-01-13T06:40:35.948Z,4.30
2018-01-13T06:43:04.260Z,4.30
2018-01-13T06:45:32.535Z,4.40
2018-01-13T06:48:00.810Z,4.40
2018-01-13T06:50:29.103Z,4.40
2018-01-13T06:52:58.149Z,4.50
2018-01-13T06:55:26.457Z,4.50
2018-01-13T06:57:54.751Z,4.50
2018-01-13T07:00:23.760Z,4.50
2018-01-13T07:02:52.011Z,4.50
2018-01-13T07:05:21.069Z,4.50
2018-01-13T07:07:49.334Z,4.50
2018-01-13T07:10:17.620Z,4.50
2018-01-13T07:12:45.898Z,4.50
2018-01-13T07:15:14.200Z,4.60
2018-01-13T07:17:42.479Z,4.60
2018-01-13T07:20:10.748Z,4.60
2018-01-13T07:22:39.040Z,4.60
2018-01-13T07:25:07.289Z,4.60
2018-01-13T07:27:35.539Z,4.70
2018-01-13T07:30:03.787Z,4.70
2018-01-13T07:32:31.820Z,4.70
2018-01-13T07:34:59.840Z,4.70
2018-01-13T07:37:27.931Z,4.70
2018-01-13T07:39:56.166Z,4.70
2018-01-13T07:42:25.236Z,4.80
2018-01-13T07:44:55.397Z,4.80
2018-01-13T07:47:24.407Z,4.80
2018-01-13T07:49:52.666Z,4.80
2018-01-13T07:52:21.721Z,4.90
2018-01-13T07:54:50.787Z,4.90
2018-01-13T07:57:19.116Z,5.00
2018-01-13T07:59:47.345Z,5.10
2018-01-13T08:02:15.617Z,5.10
2018-01-13T08:04:43.916Z,5.20
2018-01-13T08:07:12.184Z,5.20
2018-01-13T08:09:40.455Z,5.20
2018-01-13T08:12:08.740Z,5.20
2018-01-13T08:14:37.023Z,5.30
2018-01-13T08:17:05.269Z,5.30
2018-01-13T08:19:33.577Z,5.30
2018-01-13T08:22:01.896Z,5.30
2018-01-13T08:24:30.183Z,5.30
2018-01-13T08:26:59.221Z,5.40
2018-01-13T08:29:27.489Z,5.40
2018-01-13T08:31:55.724Z,5.40
2018-01-13T08:34:24.788Z,5.40
2018-01-13T08:36:53.076Z,5.40
2018-01-13T08:39:21.402Z,5.40
2018-01-13T08:41:49.680Z,5.40
2018-01-13T08:44:17.953Z,5.40
2018-01-13T08:46:47.000Z,5.50
2018-01-13T08:49:15.279Z,5.40
2018-01-13T08:51:43.578Z,5.50
2018-01-13T08:54:11.918Z,5.50
2018-01-13T08:56:40.161Z,5.50
2018-01-13T08:59:08.454Z,5.50
2018-01-13T09:01:48.502Z,5.50
2018-01-13T09:04:16.748Z,5.60
2018-01-13T09:06:46.845Z,5.60
2018-01-13T09:09:15.130Z,5.60
2018-01-13T09:11:43.421Z,5.60
2018-01-13T09:14:12.502Z,5.70
2018-01-13T09:16:40.760Z,5.70
2018-01-13T09:19:09.159Z,5.70
2018-01-13T09:21:38.475Z,5.70
2018-01-13T09:24:06.690Z,5.70
2018-01-13T09:26:34.923Z,5.80
2018-01-13T09:29:04.004Z,5.80
2018-01-13T09:31:32.261Z,5.80
2018-01-13T09:34:00.548Z,5.80
2018-01-13T09:36:28.791Z,5.80
2018-01-13T09:38:57.329Z,5.90
2018-01-13T09:41:25.637Z,5.90
2018-01-13T09:43:53.911Z,5.90
2018-01-13T09:46:22.157Z,6.00
2018-01-13T09:48:51.215Z,6.00
2018-01-13T09:51:19.522Z,6.00
2018-01-13T09:53:47.753Z,6.10
2018-01-13T09:56:16.069Z,6.10
2018-01-13T09:58:44.321Z,6.10
2018-01-13T10:01:12.560Z,6.10
2018-01-13T10:03:40.873Z,6.10
2018-01-13T10:06:09.851Z,6.10
2018-01-13T10:08:38.112Z,6.10
2018-01-13T10:11:06.414Z,6.10
2018-01-13T10:13:34.651Z,6.20
2018-01-13T10:16:03.719Z,6.20
2018-01-13T10:18:32.050Z,6.20
2018-01-13T10:21:00.350Z,6.20
2018-01-13T10:23:28.578Z,6.30
2018-01-13T10:25:57.595Z,6.30
2018-01-13T10:28:25.841Z,6.40
2018-01-13T10:30:54.912Z,6.50
2018-01-13T10:33:23.229Z,6.40
2018-01-13T10:35:52.287Z,6.50
2018-01-13T10:38:20.601Z,6.50
2018-01-13T10:40:49.670Z,6.50
2018-01-13T10:43:17.944Z,6.50
2018-01-13T10:45:46.237Z,6.60
2018-01-13T10:48:14.514Z,6.60
2018-01-13T10:50:42.803Z,6.70
2018-01-13T10:53:11.810Z,6.70
2018-01-13T10:55:40.980Z,6.80
2018-01-13T10:58:09.273Z,6.80
2018-01-13T19:56:26.570Z,5.20
2018-01-13T19:58:54.880Z,5.20
2018-01-13T20:01:23.873Z,5.00
2018-01-13T20:03:52.158Z,5.00
2018-01-13T20:06:20.426Z,5.00
2018-01-13T20:08:49.729Z,5.00
2018-01-13T20:11:18.349Z,5.00
2018-01-13T20:13:47.401Z,5.00
2018-01-13T20:16:15.679Z,4.90
2018-01-13T20:18:43.927Z,4.90
2018-01-13T20:21:12.172Z,4.90
2018-01-13T20:23:41.227Z,4.90
2018-01-13T20:26:10.282Z,4.90
2018-01-13T20:28:39.275Z,4.90
2018-01-13T20:31:07.566Z,4.90
2018-01-13T20:33:35.819Z,4.90
2018-01-13T20:36:04.837Z,4.80
2018-01-13T20:38:33.136Z,4.80
2018-01-13T20:41:01.436Z,4.80
2018-01-13T20:43:29.689Z,4.80
2018-01-13T20:45:57.901Z,4.80
2018-01-13T20:48:26.166Z,4.80
2018-01-13T20:50:54.443Z,4.80
2018-01-13T20:53:22.749Z,4.70
2018-01-13T20:55:51.031Z,4.70
2018-01-13T20:58:20.030Z,4.70
2018-01-13T21:00:49.106Z,4.60
2018-01-13T21:03:17.331Z,4.60
2018-01-13T21:05:45.630Z,4.70
2018-01-13T21:08:13.910Z,4.70
2018-01-13T21:10:42.153Z,4.70
2018-01-13T21:13:10.402Z,4.70
2018-01-13T21:15:39.480Z,4.60
2018-01-13T21:18:07.724Z,4.60
2018-01-13T21:20:36.731Z,4.60
2018-01-13T21:23:05.035Z,4.60
2018-01-13T21:25:33.263Z,4.50
2018-01-13T21:28:01.533Z,4.50
2018-01-13T21:30:29.784Z,4.50
2018-01-13T21:32:58.826Z,4.60
2018-01-13T21:35:27.075Z,4.50
2018-01-13T21:37:55.352Z,4.50
2018-01-13T21:40:23.598Z,4.40
2018-01-13T21:42:52.676Z,4.30
2018-01-13T21:45:20.903Z,4.30
2018-01-13T21:47:49.167Z,4.30
2018-01-13T21:50:18.220Z,4.20
2018-01-13T21:52:46.450Z,4.10
2018-01-13T21:55:14.734Z,4.20
2018-01-13T21:57:43.023Z,4.10
2018-01-13T22:00:11.308Z,4.10
2018-01-13T22:02:39.574Z,4.10
2018-01-13T22:05:07.863Z,4.20
2018-01-13T22:07:36.106Z,4.10
2018-01-13T22:10:04.380Z,4.10
2018-01-13T22:12:32.624Z,4.10
2018-01-13T22:15:01.683Z,4.00
2018-01-13T22:17:29.988Z,4.00
2018-01-13T22:19:58.282Z,4.00
2018-01-13T22:22:26.580Z,4.00
2018-01-13T22:24:54.947Z,4.00
2018-01-13T22:27:24.111Z,4.00
2018-01-13T22:29:52.342Z,4.00
2018-01-13T22:32:20.618Z,4.10
2018-01-13T22:34:49.764Z,4.00
2018-01-13T22:37:18.013Z,3.90
2018-01-13T22:39:46.363Z,3.90
2018-01-13T22:42:15.369Z,3.90
2018-01-13T22:44:43.689Z,3.90
2018-01-13T22:47:11.948Z,3.90
2018-01-13T22:49:40.266Z,3.90
2018-01-13T22:52:08.527Z,3.80
2018-01-13T22:54:36.807Z,3.80
2018-01-13T22:57:05.097Z,3.90
2018-01-13T22:59:33.378Z,3.80
2018-01-13T23:02:02.439Z,3.80
2018-01-13T23:04:30.711Z,3.70
2018-01-13T23:06:58.964Z,3.80
2018-01-13T23:09:27.239Z,3.80
2018-01-13T23:11:55.536Z,3.70
2018-01-13T23:14:23.825Z,3.80
2018-01-13T23:16:52.048Z,3.70
2018-01-13T23:19:20.354Z,3.80
2018-01-13T23:21:48.579Z,3.70
2018-01-13T23:24:16.826Z,3.70
2018-01-13T23:26:45.128Z,3.80
2018-01-13T23:29:13.435Z,3.80
2018-01-13T23:31:42.469Z,3.70
2018-01-13T23:34:10.697Z,3.70
2018-01-13T23:36:39.724Z,3.70
2018-01-13T23:39:07.959Z,3.70
2018-01-13T23:41:37.081Z,3.80
2018-01-13T23:44:05.337Z,3.70
2018-01-13T23:46:34.374Z,3.70
2018-01-13T23:49:02.672Z,3.70
2018-01-13T23:51:30.910Z,3.80
2018-01-13T23:53:59.240Z,3.70
2018-01-13T23:56:27.462Z,3.80
2018-01-13T23:58:55.701Z,3.80
